createdAt,value
2023-09-18T00:01:38.180Z,101311.09
2023-09-18T00:04:06.119Z,101307.53
2023-09-18T00:06:34.788Z,101306.50
2023-09-18T00:09:02.512Z,101290.31
2023-09-18T00:11:30.236Z,101284.16
2023-09-18T00:13:57.753Z,101281.75
2023-09-18T00:16:26.666Z,101289.06
2023-09-18T00:18:54.443Z,101280.03
2023-09-18T00:21:22.724Z,101268.94
2023-09-18T00:23:50.359Z,101281.91
2023-09-18T00:26:17.931Z,101282.06
2023-09-18T00:28:50.197Z,101252.25
2023-09-18T00:31:18.065Z,101247.78
2023-09-18T00:33:45.533Z,101261.41
2023-09-18T00:36:13.264Z,101259.72
2023-09-18T00:38:40.822Z,101264.16
2023-09-18T00:41:08.658Z,101257.00
2023-09-18T00:43:36.570Z,101246.09
2023-09-18T00:46:04.246Z,101245.06
2023-09-18T00:48:31.769Z,101248.81
2023-09-18T00:50:59.643Z,101248.81
2023-09-18T00:53:28.653Z,101234.50
2023-09-18T00:56:01.319Z,101244.53
2023-09-18T00:58:29.240Z,101235.81
2023-09-18T01:00:57.627Z,101236.00
2023-09-18T01:03:27.295Z,101235.16
2023-09-18T01:05:56.363Z,101234.28
2023-09-18T01:08:24.676Z,101234.44
2023-09-18T01:11:15.793Z,101235.47
2023-09-18T01:14:14.191Z,101237.69
2023-09-18T01:16:52.427Z,101237.78
2023-09-18T01:19:37.183Z,101235.41
2023-09-18T01:22:06.538Z,101225.50
2023-09-18T01:24:39.481Z,101217.34
2023-09-18T01:27:11.410Z,101208.63
2023-09-18T01:29:38.850Z,101219.53
2023-09-18T01:32:06.972Z,101211.50
2023-09-18T01:34:38.360Z,101210.50
2023-09-18T01:37:07.323Z,101202.66
2023-09-18T01:39:39.109Z,101218.31
2023-09-18T01:42:08.741Z,101214.75
2023-09-18T01:44:36.440Z,101224.09
2023-09-18T01:47:06.320Z,101223.06
2023-09-18T01:49:39.072Z,101209.59
2023-09-18T01:52:09.865Z,101194.28
2023-09-18T01:54:37.901Z,101194.28
2023-09-18T01:57:06.347Z,101193.56
2023-09-18T01:59:34.368Z,101181.97
2023-09-18T02:02:09.024Z,101172.09
2023-09-18T02:05:07.123Z,101163.91
2023-09-18T02:07:27.017Z,101154.19
2023-09-18T02:09:54.533Z,101157.09
2023-09-18T02:12:22.179Z,101158.97
2023-09-18T02:14:49.711Z,101165.41
2023-09-18T02:17:17.656Z,101154.50
2023-09-18T02:19:45.093Z,101157.22
2023-09-18T02:22:12.751Z,101144.31
2023-09-18T02:24:40.405Z,101138.00
2023-09-18T02:27:08.173Z,101139.88
2023-09-18T02:29:35.758Z,101147.34
2023-09-18T02:32:04.061Z,101156.56
2023-09-18T02:34:31.785Z,101137.47
2023-09-18T02:36:59.669Z,101133.03
2023-09-18T02:39:27.106Z,101126.91
2023-09-18T02:41:55.731Z,101133.53
2023-09-18T02:44:23.213Z,101138.13
2023-09-18T02:46:50.689Z,101130.09
2023-09-18T02:49:18.167Z,101135.72
2023-09-18T02:51:45.604Z,101141.31
2023-09-18T02:54:13.076Z,101146.78
2023-09-18T02:56:40.509Z,101147.66
2023-09-18T02:59:08.963Z,101152.41
2023-09-18T03:01:36.629Z,101157.47
2023-09-18T03:04:05.591Z,101161.56
2023-09-18T03:06:34.036Z,101153.38
2023-09-18T03:09:04.427Z,101155.06
2023-09-18T03:11:33.552Z,101153.38
2023-09-18T03:14:01.735Z,101157.28
2023-09-18T03:16:29.683Z,101169.34
2023-09-18T03:18:57.251Z,101176.84
2023-09-18T03:21:25.032Z,101175.16
2023-09-18T03:23:52.945Z,101176.13
2023-09-18T03:26:20.529Z,101176.13
2023-09-18T03:28:48.483Z,101172.56
2023-09-18T03:31:16.504Z,101166.09
2023-09-18T03:33:44.425Z,101175.16
2023-09-18T03:36:13.115Z,101159.13
2023-09-18T03:38:40.797Z,101146.50
2023-09-18T03:41:09.273Z,101146.50
2023-09-18T03:43:36.801Z,101146.81
2023-09-18T03:46:07.054Z,101146.13
2023-09-18T03:48:41.804Z,101144.56
2023-09-18T03:51:11.961Z,101146.75
2023-09-18T03:53:40.928Z,101154.22
2023-09-18T03:56:09.156Z,101159.66
2023-09-18T03:58:37.124Z,101160.84
2023-09-18T04:01:04.830Z,101163.72
2023-09-18T04:03:32.869Z,101167.47
2023-09-18T04:06:00.979Z,101161.00
2023-09-18T04:08:28.772Z,101168.47
2023-09-18T04:10:59.729Z,101167.63
2023-09-18T04:13:27.686Z,101164.22
2023-09-18T04:15:58.762Z,101174.22
2023-09-18T04:18:27.831Z,101180.00
2023-09-18T04:20:56.397Z,101177.59
2023-09-18T04:23:30.426Z,101177.75
2023-09-18T04:26:01.826Z,101169.41
2023-09-18T04:28:30.835Z,101166.69
2023-09-18T04:30:58.772Z,101157.84
2023-09-18T04:33:27.769Z,101150.84
2023-09-18T04:35:55.646Z,101146.44
2023-09-18T04:38:23.260Z,101148.44
2023-09-18T04:40:58.815Z,101157.78
2023-09-18T04:43:26.528Z,101145.19
2023-09-18T04:45:54.003Z,101132.28
2023-09-18T04:48:21.607Z,101132.59
2023-09-18T04:50:50.771Z,101148.09
2023-09-18T04:53:19.086Z,101152.81
2023-09-18T04:55:50.950Z,101154.69
2023-09-18T04:58:19.284Z,101158.59
2023-09-18T05:00:48.081Z,101155.00
2023-09-18T05:03:16.417Z,101163.31
2023-09-18T05:05:45.926Z,101160.47
2023-09-18T05:08:13.895Z,101156.03
2023-09-18T05:10:41.483Z,101154.31
2023-09-18T05:13:09.698Z,101157.88
2023-09-18T05:15:37.344Z,101160.59
2023-09-18T05:18:05.785Z,101157.88
2023-09-18T05:20:35.942Z,101151.44
2023-09-18T05:23:03.924Z,101150.59
2023-09-18T05:25:34.981Z,101152.44
2023-09-18T05:28:02.935Z,101167.91
2023-09-18T05:30:36.934Z,101177.63
2023-09-18T05:33:08.033Z,101189.25
2023-09-18T05:35:44.446Z,101179.03
2023-09-18T05:38:15.289Z,101180.91
2023-09-18T05:40:43.311Z,101197.22
2023-09-18T05:43:11.654Z,101188.94
2023-09-18T05:45:39.775Z,101179.03
2023-09-18T05:48:07.588Z,101177.84
2023-09-18T05:50:39.535Z,101156.06
2023-09-18T05:53:07.600Z,101166.97
2023-09-18T05:55:36.324Z,101164.25
2023-09-18T05:58:06.080Z,101142.47
2023-09-18T06:00:33.811Z,101109.09
2023-09-18T06:03:01.885Z,101089.03
2023-09-18T06:05:32.975Z,101084.44
2023-09-18T06:08:01.904Z,101063.50
2023-09-18T06:10:29.464Z,101039.00
2023-09-18T06:12:57.077Z,101034.41
2023-09-18T06:15:24.716Z,101017.03
2023-09-18T06:17:52.334Z,101028.81
2023-09-18T06:20:20.984Z,101047.69
2023-09-18T06:22:48.343Z,101057.41
2023-09-18T06:25:16.316Z,101068.13
2023-09-18T06:27:43.923Z,101081.44
2023-09-18T06:30:11.962Z,101089.91
2023-09-18T06:32:39.525Z,101094.38
2023-09-18T06:35:07.587Z,101086.72
2023-09-18T06:37:35.259Z,101080.97
2023-09-18T06:40:05.660Z,101076.03
2023-09-18T06:42:33.970Z,101057.50
2023-09-18T06:45:03.179Z,101054.47
2023-09-18T06:47:32.194Z,101045.97
2023-09-18T06:49:59.608Z,101055.69
2023-09-18T06:52:28.309Z,101047.66
2023-09-18T06:54:55.707Z,101053.94
2023-09-18T06:57:23.072Z,101041.88
2023-09-18T06:59:50.513Z,101048.06
2023-09-18T07:02:18.449Z,101048.72
2023-09-18T07:04:48.840Z,101046.91
2023-09-18T07:07:17.351Z,101050.28
2023-09-18T07:09:59.423Z,101040.09
2023-09-18T07:12:33.050Z,101030.03
2023-09-18T07:15:05.162Z,101021.03
2023-09-18T07:17:33.303Z,101016.41
2023-09-18T07:20:01.854Z,101014.72
2023-09-18T07:22:31.117Z,101010.13
2023-09-18T07:24:59.867Z,101015.38
2023-09-18T07:27:27.326Z,101019.84
2023-09-18T07:29:58.551Z,101017.13
2023-09-18T07:32:37.554Z,101022.22
2023-09-18T07:35:07.162Z,101022.22
2023-09-18T07:37:34.627Z,101018.50
2023-09-18T07:40:02.090Z,101023.75
2023-09-18T07:42:29.677Z,101028.53
2023-09-18T07:44:59.334Z,101038.78
2023-09-18T07:47:27.648Z,101032.31
2023-09-18T07:49:56.233Z,101031.13
2023-09-18T07:52:23.686Z,101022.63
2023-09-18T07:54:51.087Z,101030.81
2023-09-18T07:57:18.530Z,101021.44
2023-09-18T07:59:45.997Z,101016.69
2023-09-18T08:02:13.807Z,101017.53
2023-09-18T08:04:41.248Z,101021.97
2023-09-18T08:07:09.160Z,101021.63
2023-09-18T08:09:40.387Z,101023.50
2023-09-18T08:12:10.242Z,101014.16
2023-09-18T08:14:38.467Z,101029.13
2023-09-18T08:17:09.565Z,101044.16
2023-09-18T08:19:38.804Z,101032.56
2023-09-18T08:22:06.340Z,101018.41
2023-09-18T08:24:33.748Z,101028.84
2023-09-18T08:27:01.137Z,101020.47
2023-09-18T08:29:28.634Z,101008.25
2023-09-18T08:31:56.193Z,101009.09
2023-09-18T08:34:24.075Z,100994.25
2023-09-18T08:36:52.273Z,101005.00
2023-09-18T08:39:19.707Z,100988.63
2023-09-18T08:41:52.472Z,100984.88
2023-09-18T08:44:21.138Z,100986.25
2023-09-18T08:46:48.573Z,100993.56
2023-09-18T08:49:16.833Z,100993.75
2023-09-18T08:51:45.691Z,100996.81
2023-09-18T08:54:14.087Z,100995.13
2023-09-18T08:56:41.592Z,101001.59
2023-09-18T08:59:09.309Z,101007.88
2023-09-18T09:01:37.141Z,101021.72
2023-09-18T09:04:05.701Z,101020.00
2023-09-18T09:06:33.622Z,101020.16
2023-09-18T09:09:01.220Z,101015.75
2023-09-18T09:11:28.782Z,100992.34
2023-09-18T09:14:13.480Z,100980.75
2023-09-18T09:16:42.031Z,100972.41
2023-09-18T09:19:09.664Z,100964.38
2023-09-18T09:21:45.472Z,100976.16
2023-09-18T09:24:15.861Z,100973.25
2023-09-18T09:26:44.235Z,100970.03
2023-09-18T09:29:21.660Z,100959.97
2023-09-18T09:31:49.544Z,100968.31
2023-09-18T09:34:28.567Z,100963.53
2023-09-18T09:36:57.986Z,100959.63
2023-09-18T09:39:27.002Z,100963.41
2023-09-18T09:41:54.639Z,100955.38
2023-09-18T09:44:22.705Z,100958.47
2023-09-18T09:46:51.403Z,100967.50
2023-09-18T09:49:21.509Z,100950.59
2023-09-18T09:51:48.935Z,100954.34
2023-09-18T09:54:35.682Z,100945.28
2023-09-18T09:57:06.779Z,100942.38
2023-09-18T09:59:36.580Z,100952.06
2023-09-18T10:02:04.622Z,100952.56
2023-09-18T10:04:35.576Z,100947.09
2023-09-18T10:07:10.620Z,100939.38
2023-09-18T10:09:42.642Z,100950.63
2023-09-18T10:12:16.592Z,100948.69
2023-09-18T10:15:01.569Z,100957.03
2023-09-18T10:17:31.763Z,100963.81
2023-09-18T10:20:17.356Z,100960.03
2023-09-18T10:22:51.168Z,100958.47
2023-09-18T10:25:32.604Z,100968.53
2023-09-18T10:28:02.781Z,100969.34
2023-09-18T10:30:31.013Z,100970.16
2023-09-18T10:33:00.612Z,100969.59
2023-09-18T10:35:29.031Z,100967.19
2023-09-18T10:37:56.682Z,100957.22
2023-09-18T10:40:27.373Z,100946.13
2023-09-18T10:42:55.775Z,100950.84
2023-09-18T10:45:22.903Z,100952.19
2023-09-18T10:47:52.131Z,100944.47
2023-09-18T10:50:27.941Z,100934.84
2023-09-18T10:52:55.169Z,100930.53
2023-09-18T10:55:23.809Z,100927.81
2023-09-18T10:57:53.448Z,100916.78
2023-09-18T11:00:24.115Z,100919.16
2023-09-18T11:03:09.969Z,100920.13
2023-09-18T11:05:37.330Z,100914.09
2023-09-18T11:08:37.126Z,100926.47
2023-09-18T11:11:14.254Z,100916.75
2023-09-18T11:13:57.089Z,100913.75
2023-09-18T11:16:27.115Z,100904.97
2023-09-18T11:19:18.749Z,100902.78
2023-09-18T11:21:46.851Z,100900.25
2023-09-18T11:24:22.660Z,100890.16
2023-09-18T11:26:52.743Z,100895.75
2023-09-18T11:29:24.381Z,100902.31
2023-09-18T11:31:56.540Z,100902.25
2023-09-18T11:34:29.564Z,100899.91
2023-09-18T11:36:57.323Z,100908.59
2023-09-18T11:39:39.095Z,100918.13
2023-09-18T11:42:27.845Z,100925.50
2023-09-18T11:44:56.187Z,100922.94
2023-09-18T11:47:28.961Z,100924.16
2023-09-18T11:50:00.920Z,100905.19
2023-09-18T11:52:31.315Z,100905.56
2023-09-18T11:55:02.092Z,100893.28
2023-09-18T11:57:30.079Z,100897.06
2023-09-18T12:00:01.308Z,100891.78
2023-09-18T12:02:42.400Z,100895.72
2023-09-18T12:05:19.609Z,100893.56
2023-09-18T12:07:48.268Z,100893.56
2023-09-18T12:10:22.157Z,100899.78
2023-09-18T12:12:49.453Z,100884.13
2023-09-18T12:15:20.622Z,100878.34
2023-09-18T12:17:47.574Z,100878.25
2023-09-18T12:20:21.704Z,100882.41
2023-09-18T12:22:51.700Z,100877.97
2023-09-18T12:25:19.871Z,100871.66
2023-09-18T12:27:47.386Z,100862.09
2023-09-18T12:30:21.797Z,100847.94
2023-09-18T12:32:51.944Z,100852.59
2023-09-18T12:35:22.489Z,100855.53
2023-09-18T12:37:50.959Z,100856.75
2023-09-18T12:40:27.188Z,100852.78
2023-09-18T12:42:56.976Z,100850.97
2023-09-18T12:45:25.684Z,100852.00
2023-09-18T12:47:55.707Z,100848.44
2023-09-18T12:50:23.218Z,100852.00
2023-09-18T12:52:50.118Z,100841.06
2023-09-18T12:55:28.365Z,100838.34
2023-09-18T12:57:56.695Z,100831.16
2023-09-18T13:00:27.844Z,100827.59
2023-09-18T13:02:57.006Z,100833.22
2023-09-18T13:05:33.504Z,100828.13
2023-09-18T13:08:07.096Z,100830.41
2023-09-18T13:10:48.094Z,100822.19
2023-09-18T13:13:23.496Z,100814.19
2023-09-18T13:15:53.229Z,100813.84
2023-09-18T13:18:24.582Z,100805.44
2023-09-18T13:20:52.830Z,100787.16
2023-09-18T13:23:22.338Z,100798.28
2023-09-18T13:25:49.740Z,100802.72
2023-09-18T13:28:18.024Z,100784.97
2023-09-18T13:30:44.965Z,100783.47
2023-09-18T13:33:17.842Z,100779.03
2023-09-18T13:35:46.808Z,100778.38
2023-09-18T13:38:15.313Z,100779.63
2023-09-18T13:40:45.011Z,100768.56
2023-09-18T13:43:12.694Z,100766.47
2023-09-18T13:45:40.508Z,100768.38
2023-09-18T13:48:08.563Z,100768.22
2023-09-18T13:50:37.508Z,100770.94
2023-09-18T13:53:05.195Z,100780.84
2023-09-18T13:55:33.657Z,100781.50
2023-09-18T13:58:04.258Z,100777.53
2023-09-18T14:00:32.167Z,100775.09
2023-09-18T14:02:59.302Z,100770.09
2023-09-18T14:05:27.954Z,100759.59
2023-09-18T14:08:00.787Z,100764.56
2023-09-18T14:10:28.768Z,100760.78
2023-09-18T14:12:55.992Z,100751.16
2023-09-18T14:15:41.615Z,100745.66
2023-09-18T14:18:28.777Z,100746.81
2023-09-18T14:20:58.832Z,100740.75
2023-09-18T14:23:27.834Z,100729.63
2023-09-18T14:25:55.576Z,100728.19
2023-09-18T14:28:23.843Z,100733.09
2023-09-18T14:30:51.104Z,100729.41
2023-09-18T14:33:18.340Z,100728.25
2023-09-18T14:35:45.515Z,100729.34
2023-09-18T14:38:14.952Z,100720.75
2023-09-18T14:40:43.492Z,100705.63
2023-09-18T14:43:10.434Z,100693.75
2023-09-18T14:45:39.182Z,100684.94
2023-09-18T14:48:06.557Z,100682.47
2023-09-18T14:50:34.587Z,100674.47
2023-09-18T14:53:01.503Z,100654.28
2023-09-18T14:55:28.389Z,100626.88
2023-09-18T14:57:55.828Z,100619.31
2023-09-18T15:00:22.914Z,100611.75
2023-09-18T15:02:50.013Z,100600.56
2023-09-18T15:05:19.118Z,100603.97
2023-09-18T15:07:46.210Z,100587.34
2023-09-18T15:10:13.544Z,100581.44
2023-09-18T15:12:42.323Z,100583.16
2023-09-18T15:15:09.720Z,100566.50
2023-09-18T15:17:38.072Z,100576.88
2023-09-18T15:20:07.163Z,100572.03
2023-09-18T15:22:34.514Z,100571.84
2023-09-18T15:25:02.510Z,100570.78
2023-09-18T15:27:29.569Z,100571.63
2023-09-18T15:29:56.749Z,100561.50
2023-09-18T15:32:24.101Z,100564.06
2023-09-18T15:34:51.343Z,100568.88
2023-09-18T15:37:18.525Z,100571.03
2023-09-18T15:39:45.603Z,100588.13
2023-09-18T15:42:12.436Z,100587.94
2023-09-18T15:44:39.480Z,100591.28
2023-09-18T15:47:07.293Z,100593.84
2023-09-18T15:49:34.392Z,100588.56
2023-09-18T15:52:01.250Z,100591.09
2023-09-18T15:54:28.287Z,100591.09
2023-09-18T15:56:56.410Z,100593.19
2023-09-18T15:59:23.502Z,100594.25
2023-09-18T16:01:50.531Z,100582.63
2023-09-18T16:04:17.657Z,100595.50
2023-09-18T16:06:45.260Z,100587.88
2023-09-18T16:09:15.378Z,100594.00
2023-09-18T16:11:47.972Z,100606.22
2023-09-18T16:14:16.141Z,100606.63
2023-09-18T16:16:43.658Z,100612.69
2023-09-18T16:19:10.838Z,100629.34
2023-09-18T16:21:37.913Z,100631.41
2023-09-18T16:24:08.027Z,100636.44
2023-09-18T16:26:34.974Z,100632.88
2023-09-18T16:29:01.883Z,100631.19
2023-09-18T16:31:30.449Z,100636.66
2023-09-18T16:33:57.560Z,100637.91
2023-09-18T16:36:24.768Z,100630.91
2023-09-18T16:38:51.865Z,100623.31
2023-09-18T16:41:19.470Z,100620.56
2023-09-18T16:43:46.304Z,100619.91
2023-09-18T16:46:13.217Z,100621.81
2023-09-18T16:48:40.230Z,100622.81
2023-09-18T16:51:09.996Z,100622.44
2023-09-18T16:53:37.116Z,100636.34
2023-09-18T16:56:04.504Z,100635.50
2023-09-18T16:58:31.343Z,100640.97
2023-09-18T17:00:59.509Z,100646.47
2023-09-18T17:03:26.683Z,100644.75
2023-09-18T17:05:53.843Z,100641.38
2023-09-18T17:08:21.075Z,100641.38
2023-09-18T17:10:48.843Z,100640.72
2023-09-18T17:13:15.978Z,100653.78
2023-09-18T17:15:42.907Z,100658.38
2023-09-18T17:18:11.604Z,100668.88
2023-09-18T17:20:39.114Z,100666.53
2023-09-18T17:23:06.429Z,100669.84
2023-09-18T17:25:34.274Z,100672.75
2023-09-18T17:28:05.283Z,100672.13
2023-09-18T17:30:32.677Z,100669.56
2023-09-18T17:32:59.725Z,100681.78
2023-09-18T17:35:26.642Z,100672.91
2023-09-18T17:37:53.731Z,100672.63
2023-09-18T17:40:20.731Z,100672.63
2023-09-18T17:42:48.114Z,100678.31
2023-09-18T17:45:15.136Z,100681.63
2023-09-18T17:47:42.047Z,100694.28
2023-09-18T17:50:09.733Z,100686.44
2023-09-18T17:52:37.777Z,100695.50
2023-09-18T17:55:06.532Z,100702.03
2023-09-18T17:57:36.311Z,100695.22
2023-09-18T18:00:12.723Z,100700.69
2023-09-18T18:02:40.425Z,100718.84
2023-09-18T18:05:08.468Z,100723.47
2023-09-18T18:07:35.866Z,100726.59
2023-09-18T18:10:02.806Z,100734.97
2023-09-18T18:12:29.691Z,100733.47
2023-09-18T18:14:56.677Z,100734.50
2023-09-18T18:17:23.649Z,100734.50
2023-09-18T18:19:51.183Z,100741.22
2023-09-18T18:22:18.094Z,100745.22
2023-09-18T18:24:45.001Z,100752.28
2023-09-18T18:27:11.872Z,100765.28
2023-09-18T18:29:39.985Z,100773.88
2023-09-18T18:32:08.582Z,100767.47
2023-09-18T18:34:36.331Z,100770.03
2023-09-18T18:37:03.414Z,100764.34
2023-09-18T18:39:30.982Z,100760.31
2023-09-18T18:41:57.832Z,100750.72
2023-09-18T18:44:24.727Z,100762.94
2023-09-18T18:46:51.849Z,100757.63
2023-09-18T18:49:18.677Z,100766.22
2023-09-18T18:51:45.597Z,100770.84
2023-09-18T18:54:12.620Z,100770.00
2023-09-18T18:56:39.451Z,100776.09
2023-09-18T18:59:07.246Z,100768.94
2023-09-18T19:01:36.108Z,100783.84
2023-09-18T19:04:03.819Z,100781.47
2023-09-18T19:06:30.853Z,100782.91
2023-09-18T19:08:59.914Z,100789.75
2023-09-18T19:11:27.546Z,100797.47
2023-09-18T19:13:54.689Z,100796.84
2023-09-18T19:16:21.928Z,100790.88
2023-09-18T19:18:49.260Z,100788.03
2023-09-18T19:21:17.351Z,100787.25
2023-09-18T19:23:45.050Z,100782.50
2023-09-18T19:26:12.469Z,100779.97
2023-09-18T19:28:40.636Z,100777.75
2023-09-18T19:31:09.577Z,100776.91
2023-09-18T19:33:40.299Z,100769.44
2023-09-18T19:36:08.224Z,100779.91
2023-09-18T19:38:38.650Z,100786.56
2023-09-18T19:41:09.107Z,100784.19
2023-09-18T19:43:36.240Z,100791.06
2023-09-18T19:46:03.837Z,100790.59
2023-09-18T19:48:32.516Z,100787.38
2023-09-18T19:51:02.271Z,100775.97
2023-09-18T19:53:30.115Z,100771.69
2023-09-18T19:55:57.215Z,100774.78
2023-09-18T19:58:24.859Z,100774.31
2023-09-18T20:00:56.110Z,100779.28
2023-09-18T20:03:24.257Z,100784.06
2023-09-18T20:05:54.496Z,100772.50
2023-09-18T20:08:21.373Z,100772.66
2023-09-18T20:10:48.346Z,100774.72
2023-09-18T20:13:15.148Z,100777.16
2023-09-18T20:15:42.516Z,100779.41
2023-09-18T20:18:09.438Z,100783.66
2023-09-18T20:20:36.407Z,100784.69
2023-09-18T20:23:03.985Z,100787.78
2023-09-18T20:25:30.933Z,100788.13
2023-09-18T20:27:57.821Z,100777.72
2023-09-18T20:30:25.595Z,100772.63
2023-09-18T20:32:52.858Z,100764.81
2023-09-18T20:35:19.879Z,100760.56
2023-09-18T20:37:46.748Z,100757.50
2023-09-18T20:40:14.002Z,100758.72
2023-09-18T20:42:40.992Z,100765.56
2023-09-18T20:45:08.346Z,100778.50
2023-09-18T20:47:38.769Z,100784.88
2023-09-18T20:50:07.817Z,100790.00
2023-09-18T20:52:37.665Z,100769.53
2023-09-18T20:55:07.793Z,100770.78
2023-09-18T20:57:34.661Z,100772.97
2023-09-18T21:00:01.610Z,100776.06
2023-09-18T21:02:28.659Z,100774.56
2023-09-18T21:04:55.522Z,100771.13
2023-09-18T21:07:22.660Z,100766.84
2023-09-18T21:09:51.083Z,100766.84
2023-09-18T21:12:23.125Z,100778.78
2023-09-18T21:14:50.274Z,100782.72
2023-09-18T21:17:17.725Z,100793.81
2023-09-18T21:19:44.825Z,100801.13
2023-09-18T21:22:12.208Z,100781.03
2023-09-18T21:24:39.803Z,100778.44
2023-09-18T21:27:07.641Z,100766.03
2023-09-18T21:29:34.589Z,100755.28
2023-09-18T21:32:04.539Z,100757.72
2023-09-18T21:34:34.366Z,100763.31
2023-09-18T21:37:01.254Z,100762.81
2023-09-18T21:39:28.079Z,100762.97
2023-09-18T21:41:54.905Z,100757.53
2023-09-18T21:44:21.737Z,100756.88
2023-09-18T21:46:48.600Z,100754.13
2023-09-18T21:49:15.700Z,100749.88
2023-09-18T21:51:42.772Z,100763.84
2023-09-18T21:54:12.851Z,100752.09
2023-09-18T21:56:39.996Z,100747.50
2023-09-18T21:59:07.080Z,100750.41
2023-09-18T22:01:36.063Z,100755.19
2023-09-18T22:04:07.831Z,100761.81
2023-09-18T22:06:35.143Z,100771.19
2023-09-18T22:09:02.182Z,100766.75
2023-09-18T22:11:31.036Z,100769.69
2023-09-18T22:13:58.006Z,100776.31
2023-09-18T22:16:24.794Z,100780.56
2023-09-18T22:18:51.906Z,100795.72
2023-09-18T22:21:19.902Z,100797.94
2023-09-18T22:23:47.259Z,100794.38
2023-09-18T22:26:14.281Z,100800.16
2023-09-18T22:28:41.552Z,100808.19
2023-09-18T22:33:47.817Z,100804.41
2023-09-18T22:36:26.570Z,100806.31
2023-09-18T22:39:11.434Z,100803.91
2023-09-18T22:41:40.068Z,100805.09
2023-09-18T22:45:03.611Z,100800.84
2023-09-18T22:48:27.673Z,100797.59
2023-09-18T22:51:51.219Z,100804.03
2023-09-18T22:54:19.392Z,100803.53
2023-09-18T22:56:48.174Z,100807.28
2023-09-18T22:59:15.111Z,100810.00
2023-09-18T23:01:42.572Z,100801.16
2023-09-18T23:04:14.785Z,100801.63
2023-09-18T23:06:43.892Z,100804.72
2023-09-18T23:09:17.363Z,100807.94
2023-09-18T23:11:44.741Z,100800.94
2023-09-18T23:14:11.854Z,100806.72
2023-09-18T23:16:39.295Z,100806.22
2023-09-18T23:19:06.481Z,100816.09
2023-09-18T23:21:33.542Z,100809.78
2023-09-18T23:24:00.499Z,100798.03
2023-09-18T23:26:30.150Z,100804.53
2023-09-18T23:28:56.992Z,100809.28
2023-09-18T23:31:23.897Z,100801.63
2023-09-18T23:33:50.899Z,100805.50
2023-09-18T23:36:18.128Z,100797.69
2023-09-18T23:38:48.369Z,100792.91
2023-09-18T23:41:15.829Z,100798.69
2023-09-18T23:43:45.390Z,100798.16
2023-09-18T23:46:15.448Z,100803.78
2023-09-18T23:48:46.902Z,100799.00
2023-09-18T23:51:15.127Z,100800.56
2023-09-18T23:53:42.531Z,100803.28
2023-09-18T23:56:13.946Z,100810.91
2023-09-18T23:58:44.396Z,100812.09
